Time;durP1;ratioP1;P1;durP2;ratioP2;P2;SDS_P1;SDS_P2;PMS_P1;PMS_P2;Temp;Humidity;BMP_temperature;BMP_pressure;BME280_temperature;BME280_humidity;BME280_pressure;Samples;Min_cycle;Max_cycle;Signal;HPM_P1;HPM_P2
2022/11/05 00:10:18;;;;;;;54.63;27.50;;;10.00;99.90;;;;;;4357332;28;658973;-70
2022/11/05 00:19:23;;;;;;;46.10;23.73;;;9.90;99.90;;;;;;4359928;28;658117;-70
2022/11/05 00:25:18;;;;;;;50.53;25.53;;;10.00;99.90;;;;;;4371329;28;658049;-70
2022/11/05 00:28:05;;;;;;;49.57;25.90;;;10.10;99.90;;;;;;4396770;28;658789;-70
2022/11/05 00:30:52;;;;;;;51.97;26.10;;;10.10;99.90;;;;;;4411857;28;659400;-70
2022/11/05 00:33:41;;;;;;;49.03;26.27;;;10.20;99.90;;;;;;4399112;28;658536;-70
2022/11/05 00:36:29;;;;;;;52.63;27.07;;;10.30;99.90;;;;;;4411954;28;659179;-70
2022/11/05 00:39:17;;;;;;;50.83;26.57;;;10.40;99.90;;;;;;4386869;28;659944;-70
2022/11/05 00:45:10;;;;;;;60.60;30.30;;;10.50;99.90;;;;;;4386510;28;658683;-70
2022/11/05 00:51:01;;;;;;;65.03;33.00;;;10.60;99.90;;;;;;4361052;28;659788;-70
2022/11/05 00:53:50;;;;;;;66.37;34.23;;;10.70;99.90;;;;;;4405595;28;659865;-70
2022/11/05 00:56:37;;;;;;;65.93;33.97;;;10.60;99.90;;;;;;4383021;28;658900;-70
2022/11/05 00:59:24;;;;;;;66.60;35.10;;;10.60;99.90;;;;;;4413330;28;658697;-70
2022/11/05 01:02:11;;;;;;;65.73;33.37;;;10.60;99.90;;;;;;4385911;28;658566;-70
2022/11/05 01:04:58;;;;;;;67.97;34.93;;;10.60;99.90;;;;;;4406181;28;660375;-70
2022/11/05 01:07:45;;;;;;;68.80;33.17;;;10.50;99.90;;;;;;4385962;28;659347;-69
2022/11/05 01:10:34;;;;;;;62.93;33.90;;;10.50;99.90;;;;;;4406471;28;659773;-70
2022/11/05 01:13:22;;;;;;;51.87;28.60;;;10.50;99.90;;;;;;4392903;28;658881;-70
2022/11/05 01:16:10;;;;;;;36.42;20.27;;;10.30;99.90;;;;;;4405430;28;659253;-69
2022/11/05 01:18:57;;;;;;;31.67;14.60;;;10.20;99.90;;;;;;4383528;28;658441;-69
2022/11/05 01:21:44;;;;;;;27.67;15.80;;;10.10;99.90;;;;;;4404219;28;658796;-69
2022/11/05 01:24:31;;;;;;;29.97;15.17;;;10.00;99.90;;;;;;4385846;28;658722;-69
2022/11/05 01:27:20;;;;;;;29.73;16.73;;;9.90;99.90;;;;;;4409232;28;659225;-70
2022/11/05 01:30:08;;;;;;;26.57;15.70;;;9.80;99.90;;;;;;4384292;28;657640;-70
2022/11/05 01:32:55;;;;;;;23.17;13.20;;;9.80;99.90;;;;;;4382500;28;657832;-69
2022/11/05 01:35:42;;;;;;;19.43;10.50;;;9.70;99.90;;;;;;4411203;28;658694;-69
2022/11/05 01:38:30;;;;;;;23.00;10.53;;;9.70;99.90;;;;;;4404216;28;657860;-70
2022/11/05 01:41:17;;;;;;;11.13;7.33;;;9.70;99.90;;;;;;4413945;28;658934;-70
2022/11/05 01:44:06;;;;;;;11.43;6.97;;;9.60;99.90;;;;;;4410422;28;656508;-70
2022/11/05 01:46:53;;;;;;;11.80;6.67;;;9.40;99.90;;;;;;4391646;28;656559;-70
2022/11/05 01:49:40;;;;;;;9.55;6.57;;;9.40;99.90;;;;;;4394969;28;656742;-70
2022/11/05 01:52:28;;;;;;;8.80;6.33;;;9.30;99.90;;;;;;4422084;28;655011;-69
2022/11/05 01:55:16;;;;;;;9.97;6.40;;;9.30;99.90;;;;;;4395390;28;655714;-70
2022/11/05 01:58:03;;;;;;;10.07;6.40;;;9.30;99.90;;;;;;4417088;28;656660;-69
2022/11/05 02:00:51;;;;;;;9.10;5.93;;;9.30;99.90;;;;;;4387522;28;656131;-70
2022/11/05 02:03:40;;;;;;;10.07;6.50;;;9.20;99.90;;;;;;4408235;28;655883;-70
2022/11/05 02:06:27;;;;;;;11.17;6.80;;;9.20;99.90;;;;;;4386773;28;658308;-70
2022/11/05 02:09:16;;;;;;;11.15;6.68;;;9.20;99.90;;;;;;4410068;28;655971;-69
2022/11/05 02:12:04;;;;;;;11.73;6.70;;;9.20;99.90;;;;;;4388350;28;656917;-70
2022/11/05 02:14:51;;;;;;;10.00;6.80;;;9.10;99.90;;;;;;4390824;28;656626;-69
2022/11/05 02:17:43;;;;;;;9.33;7.00;;;9.00;99.90;;;;;;4412002;28;657223;-69
2022/11/05 02:20:35;;;;;;;9.80;7.30;;;8.90;99.90;;;;;;4368745;28;655535;-70
2022/11/05 02:24:03;;;;;;;13.67;8.43;;;8.90;99.90;;;;;;4388152;28;656283;-70
2022/11/05 02:27:10;;;;;;;17.93;7.77;;;8.80;99.90;;;;;;4371218;28;656819;-70
2022/11/05 02:30:37;;;;;;;16.20;8.60;;;8.70;99.90;;;;;;4388251;28;656668;-69
2022/11/05 02:33:31;;;;;;;16.50;8.07;;;8.60;99.90;;;;;;4382020;28;657928;-69
2022/11/05 02:36:23;;;;;;;13.50;7.30;;;8.60;99.90;;;;;;4389640;28;656598;-70
2022/11/05 02:39:17;;;;;;;14.30;7.10;;;8.60;99.90;;;;;;4366260;28;656970;-70
2022/11/05 02:42:09;;;;;;;10.07;6.70;;;8.50;99.90;;;;;;4392949;28;656634;-69
2022/11/05 02:44:59;;;;;;;14.10;8.27;;;8.50;99.90;;;;;;4389026;28;656827;-69
2022/11/05 02:47:50;;;;;;;14.93;8.90;;;8.30;99.90;;;;;;4389149;28;657403;-69
2022/11/05 02:50:39;;;;;;;17.00;8.10;;;8.30;99.90;;;;;;4387645;28;657769;-69
2022/11/05 02:53:29;;;;;;;11.90;7.93;;;8.40;99.90;;;;;;4386505;28;656609;-69
2022/11/05 02:56:19;;;;;;;12.73;8.27;;;8.30;99.90;;;;;;4390843;28;656510;-69
2022/11/05 02:59:06;;;;;;;11.23;7.70;;;8.30;99.90;;;;;;4391630;28;656246;-69
2022/11/05 03:01:53;;;;;;;11.83;8.47;;;8.30;99.90;;;;;;4407681;28;657894;-69
2022/11/05 03:04:42;;;;;;;12.43;9.03;;;8.20;99.90;;;;;;4389842;28;656313;-69
2022/11/05 03:07:32;;;;;;;11.63;7.83;;;8.20;99.90;;;;;;4405976;28;656655;-69
2022/11/05 03:10:31;;;;;;;11.47;8.33;;;8.20;99.90;;;;;;4387335;28;656625;-69
2022/11/05 03:13:22;;;;;;;13.63;9.20;;;8.20;99.90;;;;;;4388291;28;656482;-69
2022/11/05 03:16:11;;;;;;;13.13;8.87;;;8.30;99.90;;;;;;4387787;28;659878;-69
2022/11/05 03:19:01;;;;;;;11.70;8.68;;;8.30;99.90;;;;;;4381189;28;656916;-69
2022/11/05 03:21:51;;;;;;;12.37;8.17;;;8.30;99.90;;;;;;4384595;28;656827;-70
2022/11/05 03:24:40;;;;;;;12.50;8.47;;;8.30;99.90;;;;;;4387808;28;658154;-68
2022/11/05 03:27:29;;;;;;;11.15;7.70;;;8.30;99.90;;;;;;4382695;28;656980;-69
2022/11/05 03:30:16;;;;;;;11.40;7.97;;;8.30;99.90;;;;;;4397849;28;656977;-69
2022/11/05 03:33:06;;;;;;;8.43;6.47;;;8.30;99.90;;;;;;4409358;28;657834;-69
2022/11/05 03:35:54;;;;;;;9.43;7.20;;;8.30;99.90;;;;;;4386818;28;656022;-69
2022/11/05 03:38:44;;;;;;;9.23;6.83;;;8.30;99.90;;;;;;4390743;28;655833;-69
2022/11/05 03:41:31;;;;;;;10.20;7.30;;;8.30;99.90;;;;;;4397347;28;655667;-69
2022/11/05 03:44:21;;;;;;;7.20;6.23;;;8.30;99.90;;;;;;4410826;28;656455;-69
2022/11/05 03:47:10;;;;;;;7.53;6.57;;;8.30;99.90;;;;;;4384224;28;656803;-69
2022/11/05 03:49:58;;;;;;;7.97;6.63;;;8.20;99.90;;;;;;4386362;28;656741;-69
2022/11/05 03:52:48;;;;;;;6.60;5.57;;;8.20;99.90;;;;;;4390367;28;655526;-69
2022/11/05 03:55:41;;;;;;;8.37;6.27;;;8.20;99.90;;;;;;4405212;28;656433;-69
2022/11/05 03:58:28;;;;;;;6.40;5.37;;;8.20;99.90;;;;;;4390143;28;656198;-69
2022/11/05 04:01:15;;;;;;;8.30;6.57;;;8.20;99.90;;;;;;4393802;28;655727;-69
2022/11/05 04:04:04;;;;;;;7.20;4.93;;;8.20;99.90;;;;;;4413580;28;655208;-68
2022/11/05 04:24:06;;;;;;;7.53;5.10;;;8.00;99.90;;;;;;4359990;28;655799;-70
2022/11/05 04:25:24;;;;;;;8.13;6.33;;;8.10;99.90;;;;;;4389383;28;655873;-70
2022/11/05 04:28:13;;;;;;;8.63;6.47;;;8.10;99.90;;;;;;4391396;28;655291;-70
2022/11/05 04:30:59;;;;;;;12.65;6.93;;;8.10;99.90;;;;;;4391587;28;655927;-70
2022/11/05 04:33:46;;;;;;;9.73;7.30;;;8.10;99.90;;;;;;4409549;28;657022;-70
2022/11/05 04:36:33;;;;;;;8.13;6.77;;;8.10;99.90;;;;;;4414536;28;655565;-72
2022/11/05 04:39:21;;;;;;;9.47;7.43;;;8.10;99.90;;;;;;4393472;28;656191;-70
2022/11/05 04:42:08;;;;;;;10.73;7.97;;;8.10;99.90;;;;;;4410084;28;656567;-70
2022/11/05 04:44:56;;;;;;;9.87;6.93;;;8.10;99.90;;;;;;4390755;28;656698;-70
2022/11/05 04:47:44;;;;;;;14.40;7.40;;;8.10;99.90;;;;;;4407439;28;655733;-70
2022/11/05 04:50:31;;;;;;;10.03;7.77;;;8.10;99.90;;;;;;4388215;28;657153;-70
2022/11/05 04:53:18;;;;;;;10.73;8.47;;;8.10;99.90;;;;;;4403746;28;657501;-70
2022/11/05 04:56:10;;;;;;;11.73;8.43;;;8.10;99.90;;;;;;4386119;28;656538;-70
2022/11/05 04:58:57;;;;;;;13.37;7.67;;;8.10;99.90;;;;;;4382658;28;657464;-70
2022/11/05 05:01:45;;;;;;;12.97;8.97;;;8.00;99.90;;;;;;4404138;28;656257;-69
2022/11/05 05:04:32;;;;;;;11.67;8.90;;;8.00;99.90;;;;;;4387587;28;656749;-70
2022/11/05 05:07:20;;;;;;;9.87;7.90;;;8.00;99.90;;;;;;4407698;28;657024;-69
2022/11/05 05:10:08;;;;;;;10.50;6.97;;;8.00;99.90;;;;;;4411218;28;656993;-70
2022/11/05 05:12:55;;;;;;;8.93;6.80;;;7.90;99.90;;;;;;4386379;28;656693;-69
2022/11/05 05:15:42;;;;;;;13.37;8.13;;;8.00;99.90;;;;;;4411387;28;655764;-70
2022/11/05 05:18:31;;;;;;;14.70;8.50;;;7.90;99.90;;;;;;4406113;28;657740;-69
2022/11/05 05:24:23;;;;;;;12.43;8.93;;;7.90;99.90;;;;;;4391849;28;656508;-70
2022/11/05 05:27:11;;;;;;;13.53;8.83;;;8.00;99.90;;;;;;4387700;28;656522;-70
2022/11/05 05:29:58;;;;;;;12.30;9.33;;;7.90;99.90;;;;;;4415394;28;657564;-69
2022/11/05 05:32:45;;;;;;;12.47;8.50;;;7.90;99.90;;;;;;4391125;28;656707;-70
2022/11/05 05:35:34;;;;;;;11.77;7.90;;;7.90;99.90;;;;;;4415159;28;657912;-70
2022/11/05 05:38:21;;;;;;;17.37;9.60;;;7.90;99.90;;;;;;4393258;28;656217;-69
2022/11/05 05:41:08;;;;;;;14.03;9.60;;;7.80;99.90;;;;;;4408417;28;656329;-70
2022/11/05 05:43:55;;;;;;;12.17;7.83;;;7.90;99.90;;;;;;4382680;28;656254;-69
2022/11/05 05:46:42;;;;;;;14.98;9.30;;;7.90;99.90;;;;;;4409341;28;656724;-70
2022/11/05 05:49:29;;;;;;;14.30;9.97;;;7.90;99.90;;;;;;4404259;28;656411;-70
2022/11/05 05:52:18;;;;;;;16.57;10.10;;;7.80;99.90;;;;;;4389591;28;656774;-70
2022/11/05 05:55:06;;;;;;;16.10;10.27;;;7.70;99.90;;;;;;4390212;28;658487;-70
2022/11/05 05:57:54;;;;;;;15.77;10.17;;;7.70;99.90;;;;;;4409042;28;659228;-70
2022/11/05 06:00:41;;;;;;;14.97;10.43;;;7.80;99.90;;;;;;4384312;28;657553;-70
2022/11/05 06:03:28;;;;;;;17.07;11.50;;;7.80;99.90;;;;;;4407163;28;658019;-69
2022/11/05 06:06:18;;;;;;;19.10;11.93;;;7.90;99.90;;;;;;4387996;28;657328;-71
2022/11/05 06:09:07;;;;;;;18.67;12.53;;;7.80;99.90;;;;;;4394556;28;657282;-70
2022/11/05 06:11:54;;;;;;;19.87;12.93;;;7.90;99.90;;;;;;4411072;28;657536;-70
2022/11/05 06:14:41;;;;;;;19.33;12.90;;;7.90;99.90;;;;;;4386085;28;657935;-70
2022/11/05 06:17:28;;;;;;;22.23;13.30;;;7.90;99.90;;;;;;4402722;28;658836;-70
2022/11/05 06:20:15;;;;;;;20.37;11.43;;;7.90;99.90;;;;;;4389193;28;657603;-69
2022/11/05 06:23:02;;;;;;;24.13;15.00;;;7.90;99.90;;;;;;4412852;28;658231;-70
2022/11/05 06:25:51;;;;;;;22.03;14.47;;;7.90;99.90;;;;;;4412948;28;657388;-70
2022/11/05 06:28:40;;;;;;;24.67;13.87;;;7.90;99.90;;;;;;4407630;28;657971;-70
2022/11/05 06:31:27;;;;;;;21.23;13.13;;;8.00;99.90;;;;;;4384381;28;658371;-70
2022/11/05 06:34:15;;;;;;;20.67;13.80;;;7.90;99.90;;;;;;4400708;28;658030;-70
2022/11/05 06:37:02;;;;;;;21.10;12.50;;;8.00;99.90;;;;;;4411839;28;657787;-69
2022/11/05 06:39:49;;;;;;;17.47;10.87;;;8.00;99.90;;;;;;4412823;28;657287;-69
2022/11/05 06:42:38;;;;;;;21.07;12.60;;;8.00;99.90;;;;;;4391135;28;657715;-69
2022/11/05 06:45:25;;;;;;;25.23;13.23;;;8.00;99.90;;;;;;4389445;28;657888;-70
2022/11/05 06:48:12;;;;;;;25.27;14.50;;;7.90;99.90;;;;;;4415589;28;658114;-70
2022/11/05 06:50:59;;;;;;;25.50;14.30;;;7.80;99.90;;;;;;4409461;28;658585;-70
2022/11/05 06:53:47;;;;;;;29.70;16.03;;;7.80;99.90;;;;;;4391694;28;657461;-70
2022/11/05 06:56:34;;;;;;;30.67;16.33;;;7.80;99.90;;;;;;4403794;28;658191;-70
2022/11/05 06:59:22;;;;;;;29.10;17.00;;;7.80;99.90;;;;;;4385376;28;658160;-70
2022/11/05 07:02:10;;;;;;;29.37;17.03;;;7.80;99.90;;;;;;4408337;28;658736;-69
2022/11/05 07:04:57;;;;;;;32.27;17.80;;;7.90;99.90;;;;;;4390993;28;658026;-70
2022/11/05 07:07:44;;;;;;;35.03;18.30;;;7.80;99.90;;;;;;4409315;28;657353;-70
2022/11/05 07:10:32;;;;;;;30.60;16.57;;;7.80;99.90;;;;;;4389816;28;657895;-70
2022/11/05 07:13:19;;;;;;;34.53;18.00;;;7.90;99.90;;;;;;4414025;28;657334;-69
2022/11/05 07:16:08;;;;;;;32.23;18.63;;;7.90;99.90;;;;;;4395985;28;658176;-69
2022/11/05 07:18:55;;;;;;;33.90;19.37;;;7.90;99.90;;;;;;4386911;28;657795;-69
2022/11/05 07:21:44;;;;;;;34.77;19.10;;;8.00;99.90;;;;;;4408125;28;658964;-69
2022/11/05 07:24:31;;;;;;;38.90;20.40;;;7.90;99.90;;;;;;4387583;28;659254;-69
2022/11/05 07:27:19;;;;;;;36.40;20.53;;;7.90;99.90;;;;;;4408426;28;659788;-69
2022/11/05 07:30:08;;;;;;;36.67;20.47;;;7.90;99.90;;;;;;4385870;28;657728;-69
2022/11/05 07:32:56;;;;;;;36.07;20.20;;;7.90;99.90;;;;;;4387727;28;657914;-69
2022/11/05 07:35:44;;;;;;;39.87;21.57;;;7.80;99.90;;;;;;4405901;28;658127;-69
2022/11/05 07:38:31;;;;;;;39.10;20.40;;;7.80;99.90;;;;;;4387004;28;657175;-70
2022/11/05 07:41:18;;;;;;;36.63;18.47;;;7.80;99.90;;;;;;4409654;28;658541;-69
2022/11/05 07:44:05;;;;;;;44.37;22.17;;;7.80;99.90;;;;;;4389947;28;657740;-69
2022/11/05 07:46:52;;;;;;;48.47;24.60;;;7.80;99.90;;;;;;4404404;28;658860;-69
2022/11/05 07:49:41;;;;;;;45.37;23.30;;;7.70;99.90;;;;;;4406034;28;657382;-69
2022/11/05 07:52:28;;;;;;;44.07;23.60;;;7.70;99.90;;;;;;4385268;28;658759;-69
2022/11/05 07:55:15;;;;;;;46.37;24.07;;;7.70;99.90;;;;;;4383368;28;657792;-69
2022/11/05 07:58:02;;;;;;;44.90;21.43;;;7.70;99.90;;;;;;4407393;28;659067;-69
2022/11/05 08:00:50;;;;;;;44.17;21.33;;;7.70;99.90;;;;;;4404774;28;657838;-69
2022/11/05 08:03:37;;;;;;;46.33;23.20;;;7.70;99.90;;;;;;4402916;28;659303;-69
2022/11/05 08:06:26;;;;;;;42.73;22.43;;;7.70;99.90;;;;;;4402662;28;657505;-69
2022/11/05 08:09:13;;;;;;;40.53;22.63;;;7.80;99.90;;;;;;4378677;28;657906;-69
2022/11/05 08:12:00;;;;;;;40.43;22.27;;;7.80;99.90;;;;;;4386189;28;657832;-69
2022/11/05 08:14:47;;;;;;;40.43;20.50;;;7.80;99.90;;;;;;4403775;28;657693;-69
2022/11/05 08:17:35;;;;;;;41.37;21.60;;;7.80;99.90;;;;;;4400197;28;658326;-69
2022/11/05 08:20:22;;;;;;;40.87;21.37;;;7.80;99.90;;;;;;4406913;28;659023;-69
2022/11/05 08:23:11;;;;;;;33.57;19.53;;;7.80;99.90;;;;;;4402433;28;657229;-69
2022/11/05 08:25:58;;;;;;;35.90;20.83;;;7.80;99.90;;;;;;4378577;28;657546;-69
2022/11/05 08:28:45;;;;;;;40.85;21.10;;;7.80;99.90;;;;;;4386756;28;657852;-69
2022/11/05 08:31:35;;;;;;;37.43;20.40;;;7.80;99.90;;;;;;4394709;28;659015;-69
2022/11/05 08:34:23;;;;;;;40.97;20.33;;;7.80;99.90;;;;;;4376852;28;658122;-70
2022/11/05 08:37:10;;;;;;;32.80;19.88;;;7.80;99.90;;;;;;4377958;28;657372;-69
2022/11/05 08:39:59;;;;;;;35.43;21.00;;;7.80;99.90;;;;;;4408577;28;657950;-69
2022/11/05 08:42:46;;;;;;;36.28;20.30;;;7.90;99.90;;;;;;4379051;28;658149;-69
2022/11/05 08:45:33;;;;;;;34.43;19.17;;;7.90;99.90;;;;;;4407710;28;658452;-69
2022/11/05 08:48:20;;;;;;;34.17;18.67;;;7.90;99.90;;;;;;4379828;28;657334;-70
2022/11/05 08:51:07;;;;;;;32.30;18.33;;;7.90;99.90;;;;;;4407596;28;659153;-70
2022/11/05 08:53:54;;;;;;;38.23;19.73;;;7.80;99.90;;;;;;4401514;28;657521;-69
2022/11/05 08:56:43;;;;;;;32.57;18.23;;;7.90;99.90;;;;;;4389149;28;658354;-69
2022/11/05 08:59:30;;;;;;;32.73;17.83;;;7.90;99.90;;;;;;4384096;28;657571;-70
2022/11/05 09:02:17;;;;;;;36.77;19.00;;;7.90;99.90;;;;;;4408102;28;658662;-69
2022/11/05 09:05:05;;;;;;;30.67;17.23;;;7.90;99.90;;;;;;4401612;28;657911;-70
2022/11/05 09:07:52;;;;;;;35.20;17.97;;;7.80;99.90;;;;;;4383824;28;657945;-69
2022/11/05 09:10:39;;;;;;;35.77;19.10;;;7.80;99.90;;;;;;4407380;28;657485;-70
2022/11/05 09:13:28;;;;;;;36.93;17.97;;;7.80;99.90;;;;;;4386382;28;657821;-70
2022/11/05 09:16:17;;;;;;;30.43;17.90;;;7.90;99.90;;;;;;4391281;28;657421;-69
2022/11/05 09:19:05;;;;;;;33.10;17.23;;;7.90;99.90;;;;;;4397800;28;658829;-69
2022/11/05 09:21:52;;;;;;;35.93;17.73;;;8.00;99.90;;;;;;4410469;28;658586;-69
2022/11/05 09:24:40;;;;;;;30.73;16.10;;;8.00;99.90;;;;;;4397629;28;658207;-70
2022/11/05 09:27:27;;;;;;;28.33;16.47;;;8.10;99.90;;;;;;4405465;28;658941;-71
2022/11/05 09:30:16;;;;;;;31.80;16.87;;;8.10;99.90;;;;;;4404113;28;657459;-70
2022/11/05 09:33:04;;;;;;;29.90;16.33;;;8.10;99.90;;;;;;4396277;28;657391;-70
2022/11/05 09:35:51;;;;;;;28.03;16.67;;;8.20;99.90;;;;;;4375053;28;658216;-70
2022/11/05 09:38:38;;;;;;;29.13;15.07;;;8.20;99.90;;;;;;4400609;28;658825;-70
2022/11/05 09:41:28;;;;;;;29.70;15.47;;;8.20;99.90;;;;;;4382903;28;658216;-70
2022/11/05 09:44:17;;;;;;;35.53;17.33;;;8.10;99.90;;;;;;4392568;28;657410;-70
2022/11/05 09:47:07;;;;;;;29.63;15.60;;;8.10;99.90;;;;;;4407776;28;657727;-70
2022/11/05 09:49:55;;;;;;;29.50;14.93;;;8.10;99.90;;;;;;4401561;28;657471;-70
2022/11/05 09:52:42;;;;;;;26.30;15.07;;;8.20;99.90;;;;;;4377764;28;658615;-70
2022/11/05 09:55:30;;;;;;;32.53;15.43;;;8.20;99.90;;;;;;4405062;28;657295;-70
2022/11/05 09:58:19;;;;;;;28.05;15.20;;;8.30;99.90;;;;;;4387285;28;658205;-70
2022/11/05 10:01:07;;;;;;;26.27;14.47;;;8.30;99.90;;;;;;4385390;28;657493;-71
2022/11/05 10:03:57;;;;;;;29.00;15.50;;;8.20;99.90;;;;;;4408409;28;658192;-70
2022/11/05 10:06:46;;;;;;;28.27;16.03;;;8.30;99.90;;;;;;4387065;28;657703;-70
2022/11/05 10:09:36;;;;;;;24.70;14.63;;;8.30;99.90;;;;;;4389552;28;658428;-71
2022/11/05 10:12:24;;;;;;;26.87;14.97;;;8.30;99.90;;;;;;4395472;28;658168;-71
2022/11/05 10:15:12;;;;;;;26.00;14.50;;;8.40;99.90;;;;;;4394502;28;657371;-70
2022/11/05 10:18:03;;;;;;;24.97;14.30;;;8.20;99.90;;;;;;4401140;28;657667;-71
2022/11/05 10:20:51;;;;;;;22.87;12.80;;;8.40;99.90;;;;;;4387027;28;657994;-70
2022/11/05 10:23:39;;;;;;;23.70;13.17;;;8.30;99.90;;;;;;4398973;28;657666;-70
2022/11/05 10:26:26;;;;;;;23.03;13.10;;;8.40;99.90;;;;;;4375738;28;659193;-70
2022/11/05 10:29:15;;;;;;;21.37;12.80;;;8.50;99.90;;;;;;4402942;28;658751;-70
2022/11/05 10:32:04;;;;;;;25.27;12.97;;;8.40;99.90;;;;;;4385771;28;657949;-70
2022/11/05 10:34:51;;;;;;;21.80;12.50;;;8.40;99.90;;;;;;4379114;28;658220;-70
2022/11/05 10:37:40;;;;;;;23.17;13.37;;;8.40;99.90;;;;;;4403048;28;657742;-71
2022/11/05 10:40:32;;;;;;;28.85;13.05;;;8.30;99.90;;;;;;4383492;28;658733;-69
2022/11/05 10:43:24;;;;;;;21.73;10.80;;;8.30;99.90;;;;;;4403363;28;657535;-68
2022/11/05 10:46:21;;;;;;;19.27;12.00;;;8.40;99.90;;;;;;4381474;28;657577;-69
2022/11/05 10:49:17;;;;;;;24.17;12.97;;;8.40;99.90;;;;;;4387958;28;658375;-69
2022/11/05 10:52:16;;;;;;;21.50;12.70;;;8.20;99.90;;;;;;4383860;28;657624;-70
2022/11/05 10:55:10;;;;;;;22.17;12.40;;;8.20;99.90;;;;;;4377822;28;658894;-70
2022/11/05 10:58:08;;;;;;;19.43;12.07;;;8.20;99.90;;;;;;4379705;28;657578;-70
2022/11/05 11:01:04;;;;;;;20.97;12.07;;;8.30;99.90;;;;;;4367265;28;657548;-69
2022/11/05 11:03:52;;;;;;;18.97;10.53;;;8.40;99.90;;;;;;4389169;28;657691;-70
2022/11/05 11:06:43;;;;;;;22.93;12.13;;;8.20;99.90;;;;;;4398546;28;657605;-70
2022/11/05 11:09:31;;;;;;;23.23;12.73;;;8.20;99.90;;;;;;4372831;28;657701;-70
2022/11/05 11:12:21;;;;;;;23.03;13.37;;;8.30;99.90;;;;;;4411386;28;657668;-70
2022/11/05 11:15:13;;;;;;;24.63;13.10;;;8.30;99.90;;;;;;4391245;28;658471;-70
2022/11/05 11:18:23;;;;;;;22.30;12.43;;;8.40;99.90;;;;;;4359767;28;658144;-70
2022/11/05 11:21:13;;;;;;;23.10;12.97;;;8.20;99.90;;;;;;4362998;28;657232;-70
2022/11/05 11:24:02;;;;;;;20.97;12.37;;;8.30;99.90;;;;;;4387026;28;657676;-69
2022/11/05 11:26:49;;;;;;;23.27;12.23;;;8.30;99.90;;;;;;4407743;28;657077;-70
2022/11/05 11:29:39;;;;;;;22.17;12.43;;;8.30;99.90;;;;;;4383173;28;657435;-70
2022/11/05 11:32:32;;;;;;;23.20;13.30;;;8.20;99.90;;;;;;4381105;28;657727;-70
2022/11/05 11:35:21;;;;;;;24.37;13.23;;;8.30;99.90;;;;;;4387754;28;657145;-70
2022/11/05 11:38:11;;;;;;;23.80;12.77;;;8.20;99.90;;;;;;4382731;28;658411;-70
2022/11/05 11:41:05;;;;;;;24.83;13.30;;;8.30;99.90;;;;;;4383317;28;658943;-70
2022/11/05 11:43:54;;;;;;;22.43;12.33;;;8.30;99.90;;;;;;4361526;28;657840;-69
2022/11/05 11:46:43;;;;;;;24.13;13.43;;;8.40;99.90;;;;;;4384999;28;657965;-68
2022/11/05 11:49:31;;;;;;;23.53;13.13;;;8.30;99.90;;;;;;4386360;28;658479;-68
2022/11/05 11:52:25;;;;;;;23.60;13.47;;;8.30;99.90;;;;;;4403674;28;658853;-68
2022/11/05 11:55:20;;;;;;;21.60;12.03;;;8.30;99.90;;;;;;4381839;28;658339;-68
2022/11/05 11:58:08;;;;;;;18.13;9.63;;;8.40;99.90;;;;;;4365387;28;659028;-67
2022/11/05 12:00:57;;;;;;;21.43;12.00;;;8.50;99.90;;;;;;4391768;28;657169;-68
2022/11/05 12:03:48;;;;;;;24.90;13.50;;;8.40;99.90;;;;;;4404100;28;657802;-68
2022/11/05 12:06:37;;;;;;;28.10;14.80;;;8.40;99.90;;;;;;4391236;28;657646;-68
2022/11/05 12:09:26;;;;;;;23.97;13.17;;;8.50;99.90;;;;;;4402505;28;658819;-68
2022/11/05 12:12:14;;;;;;;24.17;13.60;;;8.50;99.90;;;;;;4385932;28;657258;-68
2022/11/05 12:15:03;;;;;;;21.10;12.80;;;8.40;99.90;;;;;;4382124;28;657285;-68
2022/11/05 12:17:58;;;;;;;21.53;13.40;;;8.50;99.90;;;;;;4356477;28;658056;-67
2022/11/05 12:21:03;;;;;;;19.57;12.10;;;8.50;99.90;;;;;;4381086;28;657720;-68
2022/11/05 12:24:13;;;;;;;22.97;12.70;;;8.50;99.90;;;;;;4348211;28;657787;-68
2022/11/05 12:27:05;;;;;;;20.47;11.20;;;8.50;99.90;;;;;;4365961;28;658428;-68
2022/11/05 12:29:57;;;;;;;19.92;11.60;;;8.40;99.90;;;;;;4386991;28;658921;-68
2022/11/05 12:32:55;;;;;;;22.10;12.37;;;8.50;99.90;;;;;;4379437;28;657817;-68
2022/11/05 12:35:49;;;;;;;17.63;10.20;;;8.40;99.90;;;;;;4353349;28;657394;-68
2022/11/05 12:38:50;;;;;;;17.63;10.27;;;8.50;99.90;;;;;;4388490;28;657900;-69
2022/11/05 12:41:40;;;;;;;16.00;10.57;;;8.50;99.90;;;;;;4383229;28;658984;-68
2022/11/05 12:44:39;;;;;;;16.70;9.93;;;8.40;99.90;;;;;;4385081;28;658429;-68
2022/11/05 12:47:39;;;;;;;15.13;9.13;;;8.40;99.90;;;;;;4382468;28;656401;-69
2022/11/05 12:50:28;;;;;;;16.70;9.77;;;8.40;99.90;;;;;;4383382;28;656563;-68
2022/11/05 12:53:52;;;;;;;16.77;9.33;;;8.40;99.90;;;;;;4385519;28;656900;-68
2022/11/05 12:56:42;;;;;;;16.90;8.87;;;8.40;99.90;;;;;;4379289;28;657147;-68
2022/11/05 12:59:33;;;;;;;11.17;7.40;;;8.40;99.90;;;;;;4377029;28;657375;-68
2022/11/05 13:02:22;;;;;;;13.07;8.50;;;8.50;99.90;;;;;;4363336;28;656926;-68
2022/11/05 13:05:13;;;;;;;13.97;8.80;;;8.50;99.90;;;;;;4409065;28;656755;-68
2022/11/05 13:08:03;;;;;;;15.93;9.90;;;8.50;99.90;;;;;;4362182;28;656328;-68
2022/11/05 13:10:54;;;;;;;16.37;9.97;;;8.50;99.90;;;;;;4383545;28;656468;-69
2022/11/05 13:13:42;;;;;;;20.20;11.40;;;8.60;99.90;;;;;;4382196;28;656700;-68
2022/11/05 13:16:31;;;;;;;21.80;11.47;;;8.70;99.90;;;;;;4404609;28;657221;-68
2022/11/05 13:19:20;;;;;;;17.23;10.73;;;8.70;99.90;;;;;;4380665;28;657785;-68
2022/11/05 13:22:13;;;;;;;19.00;11.50;;;8.70;99.90;;;;;;4379818;28;658918;-68
2022/11/05 13:25:07;;;;;;;19.43;12.33;;;8.60;99.90;;;;;;4366260;28;657880;-68
2022/11/05 13:27:59;;;;;;;20.27;11.97;;;8.60;99.90;;;;;;4375922;28;657768;-68
2022/11/05 13:30:47;;;;;;;19.23;11.93;;;8.60;99.90;;;;;;4389044;28;657487;-69
2022/11/05 13:33:35;;;;;;;17.97;11.37;;;8.70;99.90;;;;;;4405440;28;657189;-68
2022/11/05 13:39:29;;;;;;;16.53;10.17;;;8.60;99.90;;;;;;4382609;28;658425;-69
2022/11/05 13:42:38;;;;;;;18.83;11.07;;;8.70;99.90;;;;;;4390121;28;657661;-69
2022/11/05 13:45:57;;;;;;;15.97;10.03;;;8.70;99.90;;;;;;4377857;28;657742;-69
2022/11/05 13:48:52;;;;;;;15.10;9.83;;;8.70;99.90;;;;;;4382559;28;658244;-69
2022/11/05 13:51:47;;;;;;;16.07;9.50;;;8.70;99.90;;;;;;4408875;28;656891;-69
2022/11/05 13:54:56;;;;;;;15.77;8.93;;;8.60;99.90;;;;;;4385302;28;656579;-72
2022/11/05 13:58:02;;;;;;;14.33;8.43;;;8.70;99.90;;;;;;4388464;28;657143;-69
2022/11/05 14:00:59;;;;;;;15.03;9.07;;;8.80;99.90;;;;;;4388093;28;657015;-67
2022/11/05 14:03:47;;;;;;;12.57;8.67;;;8.70;99.90;;;;;;4361957;28;657418;-68
2022/11/05 14:06:35;;;;;;;14.17;8.67;;;8.60;99.90;;;;;;4404255;28;656425;-69
2022/11/05 14:09:25;;;;;;;18.40;9.60;;;8.70;99.90;;;;;;4383983;28;657495;-70
2022/11/05 14:12:20;;;;;;;14.60;9.20;;;8.70;99.90;;;;;;4388257;28;657185;-68
2022/11/05 14:15:09;;;;;;;15.57;9.57;;;8.80;99.90;;;;;;4354320;28;657999;-68
2022/11/05 14:17:59;;;;;;;17.07;9.33;;;8.80;99.90;;;;;;4381767;28;657432;-69
2022/11/05 14:20:58;;;;;;;14.30;9.70;;;8.80;99.90;;;;;;4383864;28;657873;-68
2022/11/05 14:23:52;;;;;;;16.10;9.27;;;8.60;99.90;;;;;;4373416;28;656359;-67
2022/11/05 14:26:40;;;;;;;17.30;10.47;;;8.70;99.90;;;;;;4379460;28;656658;-68
2022/11/05 14:29:36;;;;;;;21.80;10.43;;;8.70;99.90;;;;;;4415008;28;657849;-68
2022/11/05 14:32:25;;;;;;;16.27;10.57;;;8.80;99.90;;;;;;4377972;28;658319;-68
2022/11/05 14:35:37;;;;;;;14.67;9.60;;;8.60;99.90;;;;;;4388634;28;658600;-68
2022/11/05 14:38:26;;;;;;;16.57;10.53;;;8.70;99.90;;;;;;4399521;28;656527;-68
2022/11/05 14:41:13;;;;;;;18.67;11.60;;;8.70;99.90;;;;;;4411153;28;658837;-68
2022/11/05 14:44:01;;;;;;;19.47;11.97;;;8.70;99.90;;;;;;4384447;28;657218;-68
2022/11/05 14:46:50;;;;;;;19.50;12.27;;;8.70;99.90;;;;;;4408052;28;658376;-68
2022/11/05 14:49:46;;;;;;;20.87;12.73;;;8.70;99.90;;;;;;4387231;28;659542;-68
2022/11/05 14:52:35;;;;;;;20.37;13.00;;;8.70;99.90;;;;;;4382918;28;657810;-68
2022/11/05 14:55:28;;;;;;;20.67;13.03;;;8.60;99.90;;;;;;4386674;28;658570;-68
2022/11/05 14:58:29;;;;;;;22.87;13.37;;;8.60;99.90;;;;;;4373885;28;657757;-68
2022/11/05 15:01:54;;;;;;;20.87;12.40;;;8.40;99.90;;;;;;4362439;28;657745;-70
2022/11/05 15:04:44;;;;;;;21.90;12.30;;;8.30;99.90;;;;;;4387892;28;657708;-68
2022/11/05 15:07:37;;;;;;;20.57;11.57;;;8.30;99.90;;;;;;4388488;28;657629;-68
2022/11/05 15:10:26;;;;;;;17.93;11.77;;;8.30;99.90;;;;;;4389404;28;657597;-68
2022/11/05 15:13:30;;;;;;;21.17;13.00;;;8.20;99.90;;;;;;4387819;28;658182;-70